• Join FlightAware (Why Join?)
  • Login
  • US Flag 
01:20PM EDT


 

Airport Tracker/Info


-or-


 

Live Flight TrackerFlight Track Log ✈ AAY876 ✈ 06-Apr-2014 ✈ KPIE - KRFD

Flight Track Log - Related Links

Times and Time Zones

All times are in EDT time to prevent confusion due to time zone crossing. See the AAY876 flight status page for this flight to view local times or setup timezone preferences in your user account.

Time Position Orientation Groundspeed Altitude Reporting Facility
EDT Latitude Longitude Course Direction KTS MPH feet Rate Location/Type
03:45PM 27.9000 -82.6833 351° North 154 177 500  Level Tampa TRACON
03:46PM 27.8500 -82.6833 180° South 187 215 2,100 720 Climbing Tampa TRACON
03:47PM 27.8333 -82.7333 249° West 222 255 2,100 960 Level Tampa TRACON
03:48PM 27.8500 -82.8000 286° West 222 255 4,000 1,440 Climbing Tampa TRACON
03:49PM 27.9167 -82.8167 348° North 241 277 5,000 1,440 Climbing Tampa TRACON
03:50PM 28.0000 -82.8333 350° North 288 331 7,100 2,100 Climbing Tampa TRACON
03:51PM 28.5547 -82.8238 351° North  Level FlightAware Approximate
03:51PM 28.0833 -82.8333 360° North 306 352 9,500  Level Tampa TRACON
03:54PM 28.3189 -82.8572 355° North 351 404 13,600 1,920 Climbing Jacksonville Center
03:55PM 28.4317 -82.8594 359° North 384 442 16,300 2,160 Climbing Jacksonville Center
03:56PM 28.5486 -82.8619 359° North 403 464 18,000 1,800 Climbing Jacksonville Center
03:57PM 28.6611 -82.8878 349° North 408 470 19,900 1,860 Climbing Jacksonville Center
03:58PM 28.7761 -82.9542 333° Northwest 408 470 21,800 1,800 Climbing Jacksonville Center
03:59PM 28.8825 -83.0111 335° Northwest 414 476 23,500 1,740 Climbing Jacksonville Center
04:00PM 28.9950 -83.0683 336° Northwest 420 483 25,300 780 Climbing Jacksonville Center
04:02PM 29.2183 -83.1639 340° North 426 490 26,000 480 Climbing Jacksonville Center
04:03PM 29.3142 -83.2092 338° Northwest 426 490 26,900 960 Climbing Jacksonville Center
04:04PM 29.4331 -83.2408 347° North 426 490 28,000 540 Climbing Jacksonville Center
04:05PM 29.5478 -83.2842 342° North 426 490 28,000 -60 Level Jacksonville Center
04:06PM 29.6625 -83.3203 345° North 421 484 27,900  Descending Jacksonville Center
04:07PM 29.7750 -83.3592 343° North 421 484 28,000  Climbing Jacksonville Center
04:08PM 29.8919 -83.3956 345° North 421 484 27,900 -60 Descending Jacksonville Center
04:09PM 30.0064 -83.4369 343° North 421 484 27,900  Level Jacksonville Center
04:10PM 30.1211 -83.4736 345° North 421 484 28,000  Climbing Jacksonville Center
04:11PM 30.2336 -83.5153 342° North 421 484 28,000  Level Jacksonville Center
04:12PM 30.3483 -83.5497 345° North 421 484 28,000  Level Jacksonville Center
04:13PM 30.4608 -83.5892 343° North 421 484 28,000  Level Jacksonville Center
04:14PM 30.5858 -83.6308 344° North 421 484 28,000 840 Level Jacksonville Center
04:15PM 30.6983 -83.6731 342° North 421 484 29,700 1,260 Climbing Jacksonville Center
04:16PM 30.8131 -83.7103 344° North 421 484 30,600 1,080 Climbing Jacksonville Center
04:17PM 30.9233 -83.7475 344° North 416 479 31,900 660 Climbing Jacksonville Center
04:18PM 31.0317 -83.7847 344° North 416 479 32,000  Climbing Jacksonville Center
04:19PM 31.1381 -83.8247 342° North 416 479 32,000  Level Jacksonville Center
04:20PM 31.3125 -83.8881 343° North 437 503 32,000  Level Atlanta Center
04:21PM 31.4125 -83.9222 344° North 432 497 32,000  Level Atlanta Center
04:22PM 31.5253 -83.9608 344° North 420 483 32,000  Level Atlanta Center
04:23PM 31.6422 -83.9875 349° North 415 478 32,000  Level Atlanta Center
04:24PM 31.7569 -84.0144 349° North 422 486 32,000  Level Atlanta Center
04:25PM 31.8761 -84.0389 350° North 427 491 32,000  Level Atlanta Center
04:26PM 31.9928 -84.0658 349° North 427 491 32,000  Level Atlanta Center
04:27PM 32.1161 -84.0903 350° North 433 498 32,000  Level Atlanta Center
04:28PM 32.2328 -84.1200 348° North 438 504 32,000  Level Atlanta Center
04:29PM 32.3561 -84.1422 351° North 438 504 32,000  Level Atlanta Center
04:30PM 32.4769 -84.1742 347° North 438 504 32,000  Level Atlanta Center
04:31PM 32.6003 -84.1992 350° North 438 504 32,000  Level Atlanta Center
04:32PM 32.7233 -84.2289 349° North 444 511 32,000  Level Atlanta Center
04:33PM 32.8569 -84.2614 348° North 451 519 32,000  Level Atlanta Center
04:34PM 32.9758 -84.2914 348° North 439 505 32,000  Level Atlanta Center
04:36PM 33.2242 -84.3467 349° North 445 512 32,000  Level Atlanta Center
04:37PM 33.3450 -84.3769 348° North 445 512 32,000  Level Atlanta Center
04:38PM 33.4681 -84.4000 351° North 450 518 32,000  Level Atlanta Center
04:39PM 33.5767 -84.4278 348° North 445 512 32,000  Level Atlanta Center
04:40PM 33.7017 -84.4533 350° North 445 512 32,000  Level Atlanta Center
04:41PM 33.8311 -84.4814 350° North 445 512 32,100 360 Climbing Atlanta Center
04:42PM 33.9417 -84.5119 347° North 451 519 32,800 600 Climbing Atlanta Center
04:43PM 34.0769 -84.5453 348° North 460 529 33,300 480 Climbing Atlanta Center
04:44PM 34.2042 -84.5739 349° North 460 529 33,800 300 Climbing Atlanta Center
04:45PM 34.3167 -84.6297 338° Northwest 449 517 34,000 60 Climbing Atlanta Center
04:46PM 34.4103 -84.7186 322° Northwest 428 493 34,000  Level Atlanta Center
04:47PM 34.5056 -84.8025 324° Northwest 428 493 34,000  Level Atlanta Center
04:48PM 34.6033 -84.8664 332° Northwest 434 499 34,000  Level Atlanta Center
04:49PM 34.7261 -84.9233 339° North 434 499 34,000  Level Atlanta Center
04:50PM 34.8425 -84.9828 337° Northwest 441 507 34,000  Level Atlanta Center
04:51PM 34.9653 -85.0347 341° North 451 519 34,000  Level Atlanta Center
04:52PM 35.0817 -85.0894 339° North 451 519 34,000  Level Atlanta Center
04:54PM 35.2217 -85.1506 340° North 456 525 34,000  Level Memphis Center
04:55PM 35.3394 -85.2058 339° North 452 520 34,000  Level Memphis Center
04:56PM 35.4594 -85.2581 340° North 453 521 34,000  Level Memphis Center
04:57PM 35.5772 -85.3136 339° North 453 521 34,000  Level Memphis Center
04:58PM 35.6956 -85.3683 339° North 452 520 34,000  Level Memphis Center
04:59PM 35.8364 -85.4317 340° North 449 517 34,000  Level Memphis Center
05:00PM 35.9514 -85.4869 339° North 445 512 34,000  Level Memphis Center
05:01PM 36.0689 -85.5397 340° North 443 510 34,000  Level Memphis Center
05:02PM 36.1839 -85.5967 338° Northwest 443 510 34,000  Level Memphis Center
05:03PM 36.3031 -85.6461 342° North 444 511 34,000  Level Memphis Center
05:04PM 36.4161 -85.7044 337° Northwest 444 511 34,000  Level Memphis Center
05:05PM 36.5331 -85.7547 341° North 440 506 34,000  Level Memphis Center
05:06PM 36.6689 -85.8242 338° Northwest 441 507 34,000  Level Indianapolis Center
05:07PM 36.7792 -85.8708 341° North 444 511 34,000  Level Memphis Center
05:08PM 36.9092 -85.9392 337° Northwest 437 503 34,000  Level Indianapolis Center
05:09PM 37.0089 -85.9803 342° North 443 510 34,000  Level Memphis Center
05:10PM 37.1417 -86.0494 337° Northwest 442 509 34,000  Level Memphis Center
05:11PM 37.2594 -86.1011 341° North 443 510 34,000  Level Memphis Center
05:12PM 37.3900 -86.1703 337° Northwest 436 502 34,000  Level Indianapolis Center
05:13PM 37.5069 -86.2194 342° North 440 506 34,000  Level Indianapolis Center
05:14PM 37.6183 -86.2789 337° Northwest 433 498 34,000  Level Indianapolis Center
05:15PM 37.7344 -86.3319 340° North 434 499 34,000  Level Indianapolis Center
05:17PM 37.8617 -86.3986 338° Northwest 437 503 34,000  Level Indianapolis Center
05:18PM 37.9783 -86.4511 340° North 439 505 34,000  Level Indianapolis Center
05:19PM 38.0903 -86.5114 337° Northwest 439 505 34,000  Level Indianapolis Center
05:20PM 38.2064 -86.5639 340° North 440 506 34,000  Level Indianapolis Center
05:21PM 38.3158 -86.6239 337° Northwest 438 504 34,000  Level Indianapolis Center
05:22PM 38.4300 -86.6736 341° North 437 503 34,000  Level Indianapolis Center
05:23PM 38.5583 -86.7447 337° Northwest 423 487 34,000  Level Indianapolis Center
05:24PM 38.6711 -86.7969 340° North 430 495 34,000  Level Indianapolis Center
05:25PM 38.7781 -86.8569 336° Northwest 427 491 34,000  Level Indianapolis Center
05:26PM 38.8925 -86.9097 340° North 431 496 34,000  Level Indianapolis Center
05:27PM 39.0033 -86.9700 337° Northwest 432 497 34,000  Level Indianapolis Center
05:28PM 39.1178 -87.0250 340° North 433 498 34,000  Level Indianapolis Center
05:29PM 39.2500 -87.0964 337° Northwest 433 498 34,000  Level Indianapolis Center
05:30PM 39.3647 -87.1500 340° North 433 498 34,000  Level Indianapolis Center
05:31PM 39.4753 -87.2117 337° Northwest 433 498 34,000  Level Indianapolis Center
05:32PM 39.5878 -87.2664 339° North 433 498 34,000  Level Indianapolis Center
05:33PM 39.6972 -87.3261 337° Northwest 432 497 34,000  Level Indianapolis Center
05:34PM 39.8092 -87.3808 339° North 431 496 34,000  Level Indianapolis Center
05:35PM 39.9375 -87.4517 337° Northwest 427 491 34,000  Level Indianapolis Center
05:36PM 40.0464 -87.5078 338° Northwest 422 486 34,000  Level Indianapolis Center
05:37PM 40.1553 -87.5675 337° Northwest 422 486 34,000  Level Indianapolis Center
05:38PM 40.2669 -87.6225 339° North 422 486 34,000  Level Indianapolis Center
05:39PM 40.3697 -87.6892 334° Northwest 421 484 34,000  Level Indianapolis Center
05:40PM 40.4458 -87.7842 316° Northwest 389 448 34,000 -660 Level Indianapolis Center
05:41PM 40.5303 -87.8781 320° Northwest 392 451 32,700 -1,560 Descending Indianapolis Center
05:42PM 40.6286 -87.9842 321° Northwest 386 444 30,800 -1,800 Descending Indianapolis Center
05:43PM 40.7036 -88.0831 315° West 381 438 29,100 -1,680 Descending Indianapolis Center
05:44PM 40.7864 -88.1769 319° Northwest 387 445 27,400 -1,320 Descending Indianapolis Center
05:46PM 40.8761 -88.2869 317° Northwest 381 438 26,200 -960 Descending Chicago Center
05:47PM 40.9539 -88.3803 318° Northwest 378 435 25,300 -780 Descending Chicago Center
05:48PM 41.0444 -88.4878 318° Northwest 365 420 24,600 -600 Descending Chicago Center
05:49PM 41.1169 -88.5800 316° Northwest 363 418 24,100 -720 Descending Chicago Center
05:50PM 41.1953 -88.6719 319° Northwest 370 426 23,200 -960 Descending Chicago Center
05:51PM 41.2703 -88.7697 316° Northwest 373 429 22,200 -1,020 Descending Chicago Center
05:52PM 41.3514 -88.8650 319° Northwest 382 440 21,200 -600 Descending Chicago Center
05:53PM 41.4292 -88.9639 316° Northwest 386 444 21,000 -480 Descending Chicago Center
05:54PM 41.5111 -89.0575 319° Northwest 386 444 20,300 -1,800 Descending Chicago Center
05:56PM 41.6800 -89.2642 318° Northwest 371 427 15,500 -2,340 Descending Chicago Center
05:57PM 41.7736 -89.2703 357° North 362 417 13,200 -2,100 Descending Chicago Center
05:58PM 41.8703 -89.2278 18° North 366 421 11,200 -1,560 Descending Chicago Center
05:59PM 41.9586 -89.1919 17° North 342 394 10,000 -1,440 Descending Chicago Center
06:00PM 42.0317 -89.1381 29° Northeast 305 351 8,300 -1,740 Descending Chicago Center
06:01PM 42.1061 -89.0822 29° Northeast 270 311 6,500 -2,100 Descending Chicago Center
06:02PM 42.1631 -89.0375 30° Northeast 241 277 4,000 -1,800 Descending Chicago Center
06:03PM 42.2342 -89.0425 357° North 235 270 2,900 -1,080 Descending Chicago Center